createdAt,value
2023-03-11T00:02:13.984Z,10.35
2023-03-11T00:04:43.603Z,10.25
2023-03-11T00:07:12.105Z,10.20
2023-03-11T00:09:43.335Z,10.14
2023-03-11T00:12:13.547Z,10.08
2023-03-11T00:17:35.452Z,9.89
2023-03-11T00:20:06.729Z,9.80
2023-03-11T00:22:35.778Z,9.71
2023-03-11T00:25:08.918Z,9.63
2023-03-11T00:27:36.687Z,9.53
2023-03-11T00:30:06.752Z,9.41
2023-03-11T00:32:41.112Z,9.29
2023-03-11T00:35:33.108Z,9.20
2023-03-11T00:38:08.125Z,9.11
2023-03-11T00:40:35.960Z,9.06
2023-03-11T00:43:07.494Z,9.06
2023-03-11T00:45:39.579Z,8.91
2023-03-11T00:48:15.336Z,8.88
2023-03-11T00:50:43.797Z,8.88
2023-03-11T00:53:17.381Z,8.91
2023-03-11T00:55:47.175Z,8.92
2023-03-11T00:58:16.283Z,8.96
2023-03-11T01:01:17.274Z,8.99
2023-03-11T01:03:46.752Z,9.00
2023-03-11T01:06:15.873Z,9.02
2023-03-11T01:08:48.972Z,9.13
2023-03-11T01:11:18.026Z,8.98
2023-03-11T01:13:54.162Z,8.97
2023-03-11T01:16:25.191Z,9.08
2023-03-11T01:18:56.401Z,9.06
2023-03-11T01:21:23.673Z,9.00
2023-03-11T01:23:59.292Z,9.00
2023-03-11T01:26:29.526Z,8.98
2023-03-11T01:29:08.878Z,8.91
2023-03-11T01:31:41.039Z,8.89
2023-03-11T01:34:08.542Z,8.89
2023-03-11T01:36:42.776Z,8.82
2023-03-11T01:39:15.376Z,8.78
2023-03-11T01:41:43.665Z,8.79
2023-03-11T01:44:12.510Z,8.77
2023-03-11T01:46:54.350Z,8.74
2023-03-11T01:49:27.201Z,8.71
2023-03-11T01:52:01.855Z,8.71
2023-03-11T01:54:37.406Z,8.67
2023-03-11T01:57:08.817Z,8.67
2023-03-11T01:59:44.271Z,8.70
2023-03-11T02:02:24.883Z,8.72
2023-03-11T02:04:54.482Z,8.74
2023-03-11T02:07:23.485Z,8.77
2023-03-11T02:10:01.157Z,8.76
2023-03-11T02:12:33.670Z,8.77
2023-03-11T02:15:01.830Z,8.74
2023-03-11T02:17:40.867Z,8.73
2023-03-11T02:20:29.368Z,8.75
2023-03-11T02:23:06.990Z,8.81
2023-03-11T02:26:00.149Z,8.81
2023-03-11T02:28:28.771Z,8.83
2023-03-11T02:30:57.755Z,8.84
2023-03-11T02:33:41.680Z,8.84
2023-03-11T02:36:41.331Z,8.84
2023-03-11T02:39:16.747Z,8.85
2023-03-11T02:44:29.380Z,8.79
2023-03-11T02:47:00.569Z,8.76
2023-03-11T02:49:31.976Z,8.77
2023-03-11T02:52:02.282Z,8.77
2023-03-11T02:54:32.510Z,8.81
2023-03-11T02:57:05.186Z,8.81
2023-03-11T02:59:34.245Z,8.79
2023-03-11T03:02:02.109Z,8.79
2023-03-11T03:04:29.885Z,8.86
2023-03-11T03:07:00.711Z,8.92
2023-03-11T03:09:31.743Z,8.99
2023-03-11T03:11:59.983Z,9.01
2023-03-11T03:14:51.887Z,9.00
2023-03-11T03:17:19.764Z,9.06
2023-03-11T03:19:49.942Z,9.06
2023-03-11T03:22:38.855Z,9.03
2023-03-11T03:25:18.941Z,9.04
2023-03-11T03:27:50.720Z,9.10
2023-03-11T03:30:20.662Z,9.15
2023-03-11T03:32:50.175Z,9.18
2023-03-11T03:35:18.555Z,9.22
2023-03-11T03:38:25.677Z,9.26
2023-03-11T03:40:57.044Z,9.25
2023-03-11T03:43:26.604Z,9.26
2023-03-11T03:46:04.719Z,9.27
2023-03-11T03:48:41.018Z,9.24
2023-03-11T03:51:15.420Z,9.19
2023-03-11T03:53:50.892Z,9.19
2023-03-11T03:56:22.293Z,9.22
2023-03-11T03:58:50.722Z,9.21
2023-03-11T04:04:06.051Z,9.32
2023-03-11T04:06:37.077Z,9.36
2023-03-11T04:09:20.984Z,9.40
2023-03-11T04:12:13.832Z,9.43
2023-03-11T04:14:50.279Z,9.47
2023-03-11T04:17:32.299Z,9.41
2023-03-11T04:20:01.905Z,9.33
2023-03-11T04:22:29.771Z,9.26
2023-03-11T04:25:01.120Z,9.21
2023-03-11T04:27:28.953Z,9.18
2023-03-11T04:29:58.113Z,9.15
2023-03-11T04:32:38.049Z,9.14
2023-03-11T04:35:08.754Z,9.14
2023-03-11T04:37:35.939Z,9.12
2023-03-11T04:40:05.358Z,9.03
2023-03-11T04:42:37.380Z,8.93
2023-03-11T04:45:08.061Z,8.85
2023-03-11T04:47:37.456Z,8.73
2023-03-11T04:50:06.767Z,8.62
2023-03-11T04:52:34.704Z,8.53
2023-03-11T04:55:05.590Z,8.42
2023-03-11T04:57:36.495Z,8.40
2023-03-11T05:00:09.975Z,8.35
2023-03-11T05:02:42.250Z,8.33
2023-03-11T05:05:10.736Z,8.34
2023-03-11T05:07:39.916Z,8.34
2023-03-11T05:10:09.764Z,8.25
2023-03-11T05:12:37.327Z,8.21
2023-03-11T05:15:04.782Z,8.12
2023-03-11T05:17:31.807Z,7.98
2023-03-11T05:19:58.788Z,7.87
2023-03-11T05:22:47.514Z,7.75
2023-03-11T05:25:14.626Z,7.64
2023-03-11T05:27:43.036Z,7.59
2023-03-11T05:30:11.162Z,7.59
2023-03-11T05:32:39.138Z,7.58
2023-03-11T05:35:07.801Z,7.55
2023-03-11T05:37:53.065Z,7.57
2023-03-11T05:40:20.944Z,7.56
2023-03-11T05:42:47.932Z,7.55
2023-03-11T05:45:15.605Z,7.50
2023-03-11T05:47:43.851Z,7.37
2023-03-11T05:50:13.708Z,7.24
2023-03-11T05:52:40.914Z,7.12
2023-03-11T05:55:18.999Z,7.01
2023-03-11T05:57:46.207Z,6.96
2023-03-11T06:00:14.019Z,6.94
2023-03-11T06:02:41.840Z,6.85
2023-03-11T06:05:21.839Z,6.74
2023-03-11T06:07:49.525Z,6.70
2023-03-11T06:10:20.326Z,6.66
2023-03-11T06:12:47.440Z,6.61
2023-03-11T06:15:24.998Z,6.65
2023-03-11T06:17:52.967Z,6.59
2023-03-11T06:20:20.321Z,6.56
2023-03-11T06:22:52.549Z,6.58
2023-03-11T06:25:24.045Z,6.63
2023-03-11T06:27:53.408Z,6.68
2023-03-11T06:30:23.642Z,6.77
2023-03-11T06:33:05.343Z,6.73
2023-03-11T06:35:32.947Z,6.71
2023-03-11T06:38:00.960Z,6.77
2023-03-11T06:40:28.789Z,6.78
2023-03-11T06:42:56.078Z,6.81
2023-03-11T06:45:25.072Z,6.81
2023-03-11T06:47:56.547Z,6.80
2023-03-11T06:50:28.153Z,6.93
2023-03-11T06:52:56.747Z,6.98
2023-03-11T06:55:23.766Z,7.06
2023-03-11T06:57:51.552Z,7.10
2023-03-11T07:00:19.151Z,7.18
2023-03-11T07:02:51.209Z,7.24
2023-03-11T07:05:18.812Z,7.38
2023-03-11T07:07:48.832Z,7.37
2023-03-11T07:10:16.739Z,7.46
2023-03-11T07:12:43.745Z,7.53
2023-03-11T07:15:29.286Z,7.57
2023-03-11T07:17:56.362Z,7.66
2023-03-11T07:20:23.252Z,7.72
2023-03-11T07:22:54.513Z,7.79
2023-03-11T07:25:21.472Z,7.79
2023-03-11T07:27:58.599Z,7.85
2023-03-11T07:30:27.739Z,7.95
2023-03-11T07:32:54.630Z,8.00
2023-03-11T07:35:21.645Z,8.07
2023-03-11T07:37:49.762Z,8.13
2023-03-11T07:40:17.107Z,8.20
2023-03-11T07:42:43.921Z,8.29
2023-03-11T07:45:11.067Z,8.39
2023-03-11T07:47:38.529Z,8.47
2023-03-11T07:50:05.752Z,8.62
2023-03-11T07:52:33.725Z,8.69
2023-03-11T07:55:01.322Z,8.75
2023-03-11T07:57:28.244Z,8.84
2023-03-11T07:59:55.213Z,8.91
2023-03-11T08:02:24.065Z,8.96
2023-03-11T08:04:58.701Z,9.07
2023-03-11T08:07:32.013Z,9.14
2023-03-11T08:09:59.340Z,9.20
2023-03-11T08:12:26.339Z,9.25
2023-03-11T08:14:53.414Z,9.32
2023-03-11T08:17:20.302Z,9.49
2023-03-11T08:20:01.610Z,9.63
2023-03-11T08:22:28.992Z,9.78
2023-03-11T08:24:56.117Z,10.05
2023-03-11T08:27:32.703Z,10.25
2023-03-11T08:29:59.870Z,10.48
2023-03-11T08:32:30.565Z,10.56
2023-03-11T08:35:04.289Z,10.64
2023-03-11T08:37:31.920Z,10.63
2023-03-11T08:40:01.310Z,10.62
2023-03-11T08:42:28.214Z,10.61
2023-03-11T08:44:55.082Z,10.49
2023-03-11T08:47:22.702Z,10.50
2023-03-11T08:49:59.214Z,10.51
2023-03-11T08:52:26.856Z,10.55
2023-03-11T08:54:53.860Z,10.47
2023-03-11T08:57:22.050Z,10.48
2023-03-11T08:59:48.978Z,10.56
2023-03-11T09:02:16.118Z,10.62
2023-03-11T09:04:43.010Z,10.48
2023-03-11T09:07:12.322Z,10.30
2023-03-11T09:09:40.739Z,10.09
2023-03-11T09:12:13.604Z,9.99
2023-03-11T09:14:41.471Z,9.86
2023-03-11T09:17:11.451Z,9.93
2023-03-11T09:19:38.661Z,10.03
2023-03-11T09:22:06.131Z,10.08
2023-03-11T09:24:34.428Z,10.15
2023-03-11T09:27:02.041Z,10.19
2023-03-11T09:29:29.106Z,10.15
2023-03-11T09:31:56.318Z,10.13
2023-03-11T09:34:25.830Z,10.09
2023-03-11T09:36:52.686Z,10.12
2023-03-11T09:39:19.713Z,10.16
2023-03-11T09:41:58.451Z,10.12
2023-03-11T09:45:01.721Z,9.97
2023-03-11T09:47:37.838Z,9.92
2023-03-11T09:50:07.904Z,9.90
2023-03-11T09:52:46.581Z,10.06
2023-03-11T09:55:38.132Z,10.25
2023-03-11T09:58:42.540Z,10.46
2023-03-11T10:01:34.599Z,10.61
2023-03-11T10:04:10.711Z,10.68
2023-03-11T10:06:43.552Z,10.78
2023-03-11T10:09:53.333Z,10.71
2023-03-11T10:12:44.678Z,10.84
2023-03-11T10:15:18.792Z,10.94
2023-03-11T10:18:24.276Z,11.23
2023-03-11T10:21:00.296Z,11.28
2023-03-11T10:23:39.398Z,11.05
2023-03-11T10:26:18.315Z,10.95
2023-03-11T10:28:48.098Z,10.97
2023-03-11T10:31:22.888Z,10.95
2023-03-11T10:37:33.199Z,10.85
2023-03-11T10:40:29.397Z,10.83
2023-03-11T10:43:01.569Z,10.98
2023-03-11T10:45:36.401Z,11.00
2023-03-11T10:48:20.660Z,11.00
2023-03-11T10:50:56.615Z,11.13
2023-03-11T10:53:25.815Z,11.15
2023-03-11T10:56:01.278Z,11.20
2023-03-11T10:58:54.432Z,11.11
2023-03-11T11:01:48.090Z,11.04
2023-03-11T11:04:29.608Z,10.63
2023-03-11T11:07:00.438Z,10.31
2023-03-11T11:09:32.404Z,10.18
2023-03-11T11:12:22.339Z,10.34
2023-03-11T11:14:54.857Z,10.57
2023-03-11T11:17:33.666Z,10.68
2023-03-11T11:20:15.854Z,10.72
2023-03-11T11:22:53.139Z,10.53
2023-03-11T11:25:45.079Z,10.48
2023-03-11T11:28:18.185Z,10.48
2023-03-11T11:31:08.235Z,10.59
2023-03-11T11:34:04.767Z,10.66
2023-03-11T11:39:28.205Z,10.28
2023-03-11T11:41:56.266Z,10.15
2023-03-11T11:44:33.285Z,10.15
2023-03-11T11:47:13.534Z,10.08
2023-03-11T11:50:15.763Z,10.06
2023-03-11T11:52:49.326Z,10.11
2023-03-11T11:55:27.054Z,10.03
2023-03-11T11:57:53.932Z,10.08
2023-03-11T12:00:52.537Z,9.92
2023-03-11T12:03:30.957Z,9.66
2023-03-11T12:06:12.722Z,9.41
2023-03-11T12:08:45.900Z,9.19
2023-03-11T12:11:52.494Z,9.12
2023-03-11T12:14:44.710Z,8.98
2023-03-11T12:17:47.848Z,9.06
2023-03-11T12:20:42.305Z,9.10
2023-03-11T12:23:22.111Z,9.13
2023-03-11T12:26:03.929Z,9.04
2023-03-11T12:29:00.185Z,8.91
2023-03-11T12:31:31.417Z,9.01
2023-03-11T12:34:19.844Z,9.17
2023-03-11T12:36:49.363Z,9.47
2023-03-11T12:39:30.268Z,9.55
2023-03-11T12:42:18.833Z,9.61
2023-03-11T12:44:47.513Z,9.68
2023-03-11T12:47:19.694Z,10.05
2023-03-11T12:49:55.000Z,10.42
2023-03-11T12:52:28.292Z,10.77
2023-03-11T12:54:58.100Z,10.88
2023-03-11T12:57:38.379Z,10.70
2023-03-11T13:00:29.966Z,10.31
2023-03-11T13:03:15.383Z,10.13
2023-03-11T13:06:05.555Z,9.84
2023-03-11T13:08:35.790Z,9.60
2023-03-11T13:11:31.516Z,9.38
2023-03-11T13:14:23.067Z,8.81
2023-03-11T13:16:54.327Z,8.47
2023-03-11T13:19:27.585Z,8.24
2023-03-11T13:21:58.907Z,7.93
2023-03-11T13:24:34.995Z,7.79
2023-03-11T13:27:39.315Z,7.63
2023-03-11T13:30:19.435Z,7.55
2023-03-11T13:33:11.522Z,7.53
2023-03-11T13:36:01.663Z,7.42
2023-03-11T13:39:08.318Z,7.29
2023-03-11T13:41:43.817Z,6.99
2023-03-11T13:47:02.499Z,6.94
2023-03-11T13:49:53.849Z,6.91
2023-03-11T13:52:32.331Z,6.81
2023-03-11T13:55:21.479Z,6.69
2023-03-11T13:57:54.771Z,6.49
2023-03-11T14:00:29.763Z,6.32
2023-03-11T14:03:04.278Z,6.15
2023-03-11T14:05:58.730Z,5.77
2023-03-11T14:08:31.243Z,5.51
2023-03-11T14:11:03.576Z,5.31
2023-03-11T14:13:32.933Z,5.11
2023-03-11T14:16:29.169Z,4.96
2023-03-11T14:19:16.042Z,4.98
2023-03-11T14:21:45.461Z,4.98
2023-03-11T14:24:25.981Z,5.44
2023-03-11T14:26:55.591Z,6.38
2023-03-11T14:29:48.974Z,7.19
2023-03-11T14:32:33.571Z,7.71
2023-03-11T14:35:03.539Z,8.12
2023-03-11T14:37:36.396Z,8.57
2023-03-11T14:40:33.648Z,8.81
2023-03-11T14:43:06.579Z,8.56
2023-03-11T14:45:40.020Z,7.94
2023-03-11T14:48:41.471Z,8.13
2023-03-11T14:51:23.766Z,8.39
2023-03-11T14:54:17.074Z,8.23
2023-03-11T14:57:10.240Z,8.15
2023-03-11T14:59:38.788Z,8.15
2023-03-11T15:02:42.319Z,8.40
2023-03-11T15:05:32.433Z,8.73
2023-03-11T15:08:11.165Z,8.67
2023-03-11T15:11:01.411Z,8.41
2023-03-11T15:13:30.283Z,8.16
2023-03-11T15:15:59.309Z,8.10
2023-03-11T15:18:32.723Z,7.97
2023-03-11T15:21:29.695Z,8.25
2023-03-11T15:24:08.829Z,8.22
2023-03-11T15:26:37.721Z,8.30
2023-03-11T15:29:16.423Z,8.25
2023-03-11T15:31:45.952Z,8.23
2023-03-11T15:34:19.150Z,8.22
2023-03-11T15:36:49.150Z,7.84
2023-03-11T15:39:19.420Z,7.53
2023-03-11T15:41:56.949Z,6.75
2023-03-11T15:44:28.305Z,6.25
2023-03-11T15:46:56.033Z,5.95
2023-03-11T15:49:23.007Z,5.62
2023-03-11T15:51:49.882Z,5.36
2023-03-11T15:54:17.713Z,5.19
2023-03-11T15:56:44.978Z,5.00
2023-03-11T15:59:18.620Z,4.92
2023-03-11T16:01:55.240Z,4.79
2023-03-11T16:04:22.295Z,4.67
2023-03-11T16:06:56.694Z,4.55
2023-03-11T16:09:33.763Z,4.48
2023-03-11T16:15:37.597Z,4.34
2023-03-11T16:18:08.157Z,4.19
2023-03-11T16:20:47.625Z,4.15
2023-03-11T16:23:38.621Z,4.13
2023-03-11T16:26:12.224Z,4.15
2023-03-11T16:28:48.090Z,4.13
2023-03-11T16:31:17.178Z,4.08
2023-03-11T16:33:44.106Z,3.96
2023-03-11T16:36:11.107Z,3.95
2023-03-11T16:38:47.220Z,3.89
2023-03-11T16:41:20.519Z,3.85
2023-03-11T16:43:54.137Z,3.87
2023-03-11T16:46:21.211Z,3.80
2023-03-11T16:48:48.233Z,3.79
2023-03-11T16:51:15.075Z,3.74
2023-03-11T16:53:42.092Z,3.66
2023-03-11T16:56:09.002Z,3.68
2023-03-11T16:58:42.880Z,3.60
2023-03-11T17:01:13.716Z,3.55
2023-03-11T17:03:43.123Z,3.57
2023-03-11T17:06:10.167Z,3.49
2023-03-11T17:08:37.096Z,3.47
2023-03-11T17:11:05.856Z,3.46
2023-03-11T17:13:32.739Z,3.36
2023-03-11T17:16:01.078Z,3.21
2023-03-11T17:18:29.724Z,3.20
2023-03-11T17:23:38.460Z,3.14
2023-03-11T17:26:11.053Z,3.15
2023-03-11T17:28:40.755Z,3.14
2023-03-11T17:31:12.511Z,3.14
2023-03-11T17:33:44.714Z,3.11
2023-03-11T17:36:15.555Z,3.12
2023-03-11T17:38:44.422Z,3.16
2023-03-11T17:41:29.733Z,3.19
2023-03-11T17:43:56.646Z,3.22
2023-03-11T17:46:39.636Z,3.18
2023-03-11T17:49:07.732Z,3.22
2023-03-11T17:51:39.231Z,3.18
2023-03-11T17:54:06.429Z,3.19
2023-03-11T17:56:33.401Z,3.11
2023-03-11T17:59:02.508Z,3.06
2023-03-11T18:01:29.561Z,3.05
2023-03-11T18:03:56.936Z,3.00
2023-03-11T18:06:26.968Z,3.02
2023-03-11T18:08:53.972Z,3.05
2023-03-11T18:11:25.680Z,3.02
2023-03-11T18:13:53.785Z,3.06
2023-03-11T18:16:31.406Z,3.08
2023-03-11T18:18:58.324Z,3.09
2023-03-11T18:21:27.796Z,3.16
2023-03-11T18:23:57.601Z,3.21
2023-03-11T18:26:28.654Z,3.11
2023-03-11T18:28:57.177Z,3.11
2023-03-11T18:31:25.625Z,3.15
2023-03-11T18:33:55.884Z,3.17
2023-03-11T18:36:31.307Z,3.21
2023-03-11T18:39:00.780Z,3.14
2023-03-11T18:41:31.933Z,3.13
2023-03-11T18:44:00.899Z,3.11
2023-03-11T18:46:37.146Z,3.08
2023-03-11T18:49:27.106Z,3.07
2023-03-11T18:51:56.648Z,3.09
2023-03-11T18:54:24.837Z,3.09
2023-03-11T18:57:19.325Z,3.08
2023-03-11T19:00:00.506Z,3.09
2023-03-11T19:02:39.574Z,3.05
2023-03-11T19:05:21.423Z,3.09
2023-03-11T19:07:50.439Z,3.09
2023-03-11T19:10:26.003Z,3.08
2023-03-11T19:12:54.111Z,3.09
2023-03-11T19:15:22.680Z,3.11
2023-03-11T19:18:00.511Z,3.05
2023-03-11T19:20:42.950Z,3.05
2023-03-11T19:23:10.897Z,3.00
2023-03-11T19:25:38.782Z,2.93
2023-03-11T19:28:10.976Z,2.91
2023-03-11T19:30:37.832Z,2.81
2023-03-11T19:33:04.823Z,2.74
2023-03-11T19:35:45.511Z,2.68
2023-03-11T19:38:13.031Z,2.62
2023-03-11T19:40:44.669Z,2.54
2023-03-11T19:43:26.386Z,2.43
2023-03-11T19:46:28.697Z,2.39
2023-03-11T19:48:56.487Z,2.24
2023-03-11T19:51:28.477Z,2.18
2023-03-11T19:56:46.477Z,2.18
2023-03-11T19:59:15.530Z,2.20
2023-03-11T20:01:57.585Z,2.21
2023-03-11T20:04:26.955Z,2.12
2023-03-11T20:06:55.519Z,2.11
2023-03-11T20:09:22.638Z,2.05
2023-03-11T20:11:53.789Z,1.99
2023-03-11T20:14:30.398Z,1.88
2023-03-11T20:17:00.625Z,1.88
2023-03-11T20:19:34.525Z,1.42
2023-03-11T20:22:02.646Z,0.98
2023-03-11T20:24:33.143Z,0.62
2023-03-11T20:27:02.599Z,0.33
2023-03-11T20:29:37.738Z,0.13
2023-03-11T20:32:06.745Z,0.08
2023-03-11T20:34:35.318Z,0.04
2023-03-11T20:37:09.839Z,-0.05
2023-03-11T20:42:21.837Z,-0.03
2023-03-11T20:44:53.193Z,-0.09
2023-03-11T20:47:29.447Z,-0.08
2023-03-11T20:49:58.017Z,-0.03
2023-03-11T20:52:27.986Z,-0.00
2023-03-11T20:54:59.242Z,0.09
2023-03-11T20:57:31.864Z,0.11
2023-03-11T21:00:03.075Z,0.09
2023-03-11T21:02:41.520Z,0.11
2023-03-11T21:05:14.283Z,0.08
2023-03-11T21:07:41.662Z,0.13
2023-03-11T21:10:25.412Z,0.12
2023-03-11T21:12:52.364Z,0.10
2023-03-11T21:15:21.893Z,0.12
2023-03-11T21:17:51.568Z,0.14
2023-03-11T21:20:24.332Z,0.15
2023-03-11T21:23:04.305Z,0.11
2023-03-11T21:25:31.717Z,0.07
2023-03-11T21:27:58.690Z,0.07
2023-03-11T21:30:29.739Z,0.04
2023-03-11T21:33:03.224Z,0.07
2023-03-11T21:35:30.445Z,0.12
2023-03-11T21:37:57.548Z,0.13
2023-03-11T21:40:44.459Z,0.14
2023-03-11T21:43:14.357Z,0.12
2023-03-11T21:45:45.645Z,0.07
2023-03-11T21:48:18.416Z,0.16
2023-03-11T21:50:51.395Z,0.22
2023-03-11T21:53:22.605Z,0.20
2023-03-11T21:55:54.572Z,0.21
2023-03-11T21:58:30.225Z,0.21
2023-03-11T22:01:00.524Z,0.19
2023-03-11T22:03:46.277Z,0.22
2023-03-11T22:06:14.052Z,0.26
2023-03-11T22:08:44.234Z,0.31
2023-03-11T22:11:31.118Z,0.34
2023-03-11T22:14:00.540Z,0.35
2023-03-11T22:16:28.037Z,0.38
2023-03-11T22:18:55.249Z,0.40
2023-03-11T22:21:37.290Z,0.43
2023-03-11T22:24:13.146Z,0.37
2023-03-11T22:26:41.052Z,0.36
2023-03-11T22:29:14.087Z,0.34
2023-03-11T22:31:44.068Z,0.39
2023-03-11T22:34:12.936Z,0.41
2023-03-11T22:37:03.478Z,0.42
2023-03-11T22:39:31.694Z,0.49
2023-03-11T22:42:10.749Z,0.43
2023-03-11T22:44:41.064Z,0.45
2023-03-11T22:47:38.215Z,0.47
2023-03-11T22:50:07.699Z,0.44
2023-03-11T22:52:36.997Z,0.48
2023-03-11T22:55:04.108Z,0.52
2023-03-11T22:57:40.603Z,0.47
2023-03-11T23:00:19.570Z,0.46
2023-03-11T23:02:57.396Z,0.46
2023-03-11T23:05:36.104Z,0.47
2023-03-11T23:08:03.312Z,0.43
2023-03-11T23:10:33.940Z,0.43
2023-03-11T23:13:12.629Z,0.45
2023-03-11T23:15:49.387Z,0.39
2023-03-11T23:18:25.837Z,0.39
2023-03-11T23:21:25.814Z,0.47
2023-03-11T23:24:00.385Z,0.41
2023-03-11T23:26:42.352Z,0.41
2023-03-11T23:29:14.861Z,0.43
2023-03-11T23:32:02.265Z,0.39
2023-03-11T23:34:34.031Z,0.40
2023-03-11T23:37:05.365Z,0.40
2023-03-11T23:39:37.739Z,0.43
2023-03-11T23:42:24.175Z,0.44
2023-03-11T23:44:55.277Z,0.44
2023-03-11T23:47:30.317Z,0.44
2023-03-11T23:50:06.592Z,0.45
2023-03-11T23:52:34.628Z,0.49
2023-03-11T23:55:09.733Z,0.41
2023-03-11T23:57:47.461Z,0.40
